sensor_id;sensor_type;location;lat;lon;timestamp;pressure;altitude;pressure_sealevel;temperature;humidity
21109;BME280;10712;52.944;9.098;2023-03-22T00:02:20;100852.91;;;17.29;55.15
21109;BME280;10712;52.944;9.098;2023-03-22T00:04:46;100846.66;;;17.40;54.96
21109;BME280;10712;52.944;9.098;2023-03-22T00:07:11;100843.81;;;17.42;54.89
21109;BME280;10712;52.944;9.098;2023-03-22T00:09:37;100842.13;;;17.41;54.75
21109;BME280;10712;52.944;9.098;2023-03-22T00:12:03;100840.91;;;17.33;54.91
21109;BME280;10712;52.944;9.098;2023-03-22T00:14:29;100836.72;;;17.41;54.78
21109;BME280;10712;52.944;9.098;2023-03-22T00:16:55;100831.06;;;17.44;54.59
21109;BME280;10712;52.944;9.098;2023-03-22T00:19:21;100826.41;;;17.46;54.52
21109;BME280;10712;52.944;9.098;2023-03-22T00:21:47;100823.97;;;17.43;54.38
21109;BME280;10712;52.944;9.098;2023-03-22T00:24:13;100815.06;;;17.42;54.78
21109;BME280;10712;52.944;9.098;2023-03-22T00:26:39;100816.88;;;17.42;54.53
21109;BME280;10712;52.944;9.098;2023-03-22T00:29:04;100813.47;;;17.40;54.69
21109;BME280;10712;52.944;9.098;2023-03-22T00:31:30;100819.84;;;17.39;54.68
21109;BME280;10712;52.944;9.098;2023-03-22T00:33:56;100807.81;;;17.43;54.52
21109;BME280;10712;52.944;9.098;2023-03-22T00:36:22;100809.78;;;17.41;54.65
21109;BME280;10712;52.944;9.098;2023-03-22T00:38:50;100806.38;;;17.39;54.63
21109;BME280;10712;52.944;9.098;2023-03-22T00:41:22;100795.06;;;17.45;54.59
21109;BME280;10712;52.944;9.098;2023-03-22T00:43:50;100794.53;;;17.51;54.46
21109;BME280;10712;52.944;9.098;2023-03-22T00:46:18;100793.84;;;17.49;54.50
21109;BME280;10712;52.944;9.098;2023-03-22T00:48:44;100781.25;;;17.59;54.30
21109;BME280;10712;52.944;9.098;2023-03-22T00:51:12;100783.63;;;17.73;54.01
21109;BME280;10712;52.944;9.098;2023-03-22T00:53:39;100781.03;;;17.62;54.49
21109;BME280;10712;52.944;9.098;2023-03-22T00:56:05;100777.06;;;17.66;54.41
21109;BME280;10712;52.944;9.098;2023-03-22T00:58:42;100760.00;;;17.56;54.62
21109;BME280;10712;52.944;9.098;2023-03-22T01:01:08;100755.19;;;17.59;54.66
21109;BME280;10712;52.944;9.098;2023-03-22T01:03:39;100766.94;;;17.79;54.13
21109;BME280;10712;52.944;9.098;2023-03-22T01:06:06;100769.44;;;17.71;54.30
21109;BME280;10712;52.944;9.098;2023-03-22T01:08:32;100766.03;;;17.69;54.25
21109;BME280;10712;52.944;9.098;2023-03-22T01:10:59;100761.22;;;17.73;54.17
21109;BME280;10712;52.944;9.098;2023-03-22T01:13:25;100763.47;;;17.67;54.44
21109;BME280;10712;52.944;9.098;2023-03-22T01:15:52;100758.66;;;17.71;54.17
21109;BME280;10712;52.944;9.098;2023-03-22T01:18:17;100763.25;;;17.80;54.10
21109;BME280;10712;52.944;9.098;2023-03-22T01:20:43;100774.81;;;17.71;54.19
21109;BME280;10712;52.944;9.098;2023-03-22T01:23:09;100769.50;;;17.81;54.16
21109;BME280;10712;52.944;9.098;2023-03-22T01:25:35;100770.34;;;17.81;53.98
21109;BME280;10712;52.944;9.098;2023-03-22T01:28:01;100768.06;;;17.77;54.14
21109;BME280;10712;52.944;9.098;2023-03-22T01:30:28;100765.41;;;17.86;53.81
21109;BME280;10712;52.944;9.098;2023-03-22T01:32:54;100758.66;;;17.71;54.23
21109;BME280;10712;52.944;9.098;2023-03-22T01:35:21;100763.25;;;17.80;53.81
21109;BME280;10712;52.944;9.098;2023-03-22T01:37:47;100753.38;;;17.90;53.53
21109;BME280;10712;52.944;9.098;2023-03-22T01:40:14;100747.97;;;17.90;53.44
21109;BME280;10712;52.944;9.098;2023-03-22T01:42:41;100751.59;;;17.80;53.58
21109;BME280;10712;52.944;9.098;2023-03-22T01:51:13;100738.56;;;17.85;53.53
21109;BME280;10712;52.944;9.098;2023-03-22T01:54:04;100737.72;;;17.84;53.31
21109;BME280;10712;52.944;9.098;2023-03-22T01:56:36;100731.25;;;17.96;53.03
21109;BME280;10712;52.944;9.098;2023-03-22T01:59:07;100723.88;;;17.98;53.05
21109;BME280;10712;52.944;9.098;2023-03-22T02:01:51;100722.00;;;17.89;53.11
21109;BME280;10712;52.944;9.098;2023-03-22T02:04:21;100717.88;;;17.85;53.34
21109;BME280;10712;52.944;9.098;2023-03-22T02:06:51;100714.91;;;17.88;53.28
21109;BME280;10712;52.944;9.098;2023-03-22T02:09:19;100711.94;;;17.91;53.23
21109;BME280;10712;52.944;9.098;2023-03-22T02:15:46;100710.50;;;17.87;53.35
21109;BME280;10712;52.944;9.098;2023-03-22T02:19:10;100706.53;;;17.91;53.22
21109;BME280;10712;52.944;9.098;2023-03-22T02:22:16;100705.06;;;17.78;53.68
21109;BME280;10712;52.944;9.098;2023-03-22T02:31:27;100705.56;;;17.92;53.41
21109;BME280;10712;52.944;9.098;2023-03-22T02:34:39;100701.13;;;17.82;53.44
21109;BME280;10712;52.944;9.098;2023-03-22T02:38:00;100702.84;;;17.83;53.47
21109;BME280;10712;52.944;9.098;2023-03-22T02:40:57;100694.06;;;17.90;53.31
21109;BME280;10712;52.944;9.098;2023-03-22T02:43:41;100709.34;;;17.80;53.53
21109;BME280;10712;52.944;9.098;2023-03-22T02:46:47;100710.25;;;17.90;53.19
21109;BME280;10712;52.944;9.098;2023-03-22T02:49:45;100700.34;;;18.00;53.14
21109;BME280;10712;52.944;9.098;2023-03-22T02:52:50;100700.75;;;18.05;52.85
21109;BME280;10712;52.944;9.098;2023-03-22T02:55:53;100693.22;;;17.99;52.81
21109;BME280;10712;52.944;9.098;2023-03-22T02:58:50;100688.13;;;17.96;53.06
21109;BME280;10712;52.944;9.098;2023-03-22T03:01:27;100692.41;;;18.08;52.72
21109;BME280;10712;52.944;9.098;2023-03-22T03:04:01;100693.69;;;18.04;52.84
21109;BME280;10712;52.944;9.098;2023-03-22T03:06:35;100693.81;;;18.13;52.60
21109;BME280;10712;52.944;9.098;2023-03-22T03:09:06;100694.69;;;18.03;52.77
21109;BME280;10712;52.944;9.098;2023-03-22T03:11:32;100698.53;;;18.10;52.67
21109;BME280;10712;52.944;9.098;2023-03-22T03:13:59;100687.44;;;18.14;52.48
21109;BME280;10712;52.944;9.098;2023-03-22T03:16:29;100686.19;;;18.18;52.41
21109;BME280;10712;52.944;9.098;2023-03-22T03:19:19;100694.69;;;18.13;52.38
21109;BME280;10712;52.944;9.098;2023-03-22T03:22:05;100690.13;;;18.14;52.42
21109;BME280;10712;52.944;9.098;2023-03-22T03:30:54;100691.69;;;18.06;52.67
21109;BME280;10712;52.944;9.098;2023-03-22T03:33:25;100685.03;;;18.10;52.42
21109;BME280;10712;52.944;9.098;2023-03-22T03:36:02;100692.16;;;18.12;52.36
21109;BME280;10712;52.944;9.098;2023-03-22T03:38:36;100687.28;;;18.05;52.58
21109;BME280;10712;52.944;9.098;2023-03-22T03:41:08;100680.47;;;18.01;52.96
21109;BME280;10712;52.944;9.098;2023-03-22T03:43:38;100681.06;;;18.15;52.55
21109;BME280;10712;52.944;9.098;2023-03-22T03:46:06;100673.53;;;18.08;52.70
21109;BME280;10712;52.944;9.098;2023-03-22T03:48:36;100676.81;;;18.22;52.35
21109;BME280;10712;52.944;9.098;2023-03-22T03:51:03;100673.84;;;18.15;52.50
21109;BME280;10712;52.944;9.098;2023-03-22T03:53:30;100677.25;;;18.17;52.24
21109;BME280;10712;52.944;9.098;2023-03-22T03:55:55;100677.66;;;18.13;52.51
21109;BME280;10712;52.944;9.098;2023-03-22T03:58:22;100672.13;;;18.14;52.24
21109;BME280;10712;52.944;9.098;2023-03-22T04:00:49;100676.97;;;18.10;52.70
21109;BME280;10712;52.944;9.098;2023-03-22T04:03:17;100665.72;;;18.05;52.56
21109;BME280;10712;52.944;9.098;2023-03-22T04:06:02;100677.66;;;18.03;52.63
21109;BME280;10712;52.944;9.098;2023-03-22T04:08:32;100678.50;;;18.03;52.58
21109;BME280;10712;52.944;9.098;2023-03-22T04:10:58;100670.81;;;17.89;52.86
21109;BME280;10712;52.944;9.098;2023-03-22T04:13:24;100669.69;;;18.01;52.80
21109;BME280;10712;52.944;9.098;2023-03-22T04:15:53;100667.56;;;17.95;52.78
21109;BME280;10712;52.944;9.098;2023-03-22T04:18:20;100667.13;;;17.90;52.92
21109;BME280;10712;52.944;9.098;2023-03-22T04:20:47;100662.00;;;17.87;52.98
21109;BME280;10712;52.944;9.098;2023-03-22T04:23:15;100654.81;;;17.97;52.80
21109;BME280;10712;52.944;9.098;2023-03-22T04:25:44;100656.78;;;17.95;52.61
21109;BME280;10712;52.944;9.098;2023-03-22T04:28:15;100645.28;;;17.93;52.84
21109;BME280;10712;52.944;9.098;2023-03-22T04:30:41;100651.09;;;17.98;52.57
21109;BME280;10712;52.944;9.098;2023-03-22T04:33:30;100656.47;;;17.89;52.90
21109;BME280;10712;52.944;9.098;2023-03-22T04:36:17;100653.78;;;17.98;52.76
21109;BME280;10712;52.944;9.098;2023-03-22T04:39:09;100650.94;;;18.00;52.60
21109;BME280;10712;52.944;9.098;2023-03-22T04:41:36;100647.56;;;18.07;52.56
21109;BME280;10712;52.944;9.098;2023-03-22T04:44:06;100651.25;;;18.06;52.47
21109;BME280;10712;52.944;9.098;2023-03-22T04:46:36;100634.22;;;17.96;52.60
21109;BME280;10712;52.944;9.098;2023-03-22T04:49:05;100644.16;;;18.05;52.56
21109;BME280;10712;52.944;9.098;2023-03-22T04:51:35;100645.59;;;18.09;52.56
21109;BME280;10712;52.944;9.098;2023-03-22T04:54:22;100638.22;;;18.12;52.37
21109;BME280;10712;52.944;9.098;2023-03-22T04:56:49;100636.78;;;18.07;52.50
21109;BME280;10712;52.944;9.098;2023-03-22T04:59:17;100638.66;;;18.17;52.23
21109;BME280;10712;52.944;9.098;2023-03-22T05:01:46;100639.59;;;18.06;52.67
21109;BME280;10712;52.944;9.098;2023-03-22T05:04:17;100638.50;;;18.08;52.74
21109;BME280;10712;52.944;9.098;2023-03-22T05:06:44;100633.38;;;18.05;52.67
21109;BME280;10712;52.944;9.098;2023-03-22T05:09:19;100624.59;;;18.23;52.17
21109;BME280;10712;52.944;9.098;2023-03-22T05:11:45;100618.38;;;18.32;51.92
21109;BME280;10712;52.944;9.098;2023-03-22T05:14:19;100613.50;;;18.26;51.97
21109;BME280;10712;52.944;9.098;2023-03-22T05:16:45;100615.50;;;18.33;51.64
21109;BME280;10712;52.944;9.098;2023-03-22T05:19:11;100607.84;;;18.29;51.82
21109;BME280;10712;52.944;9.098;2023-03-22T05:21:41;100613.81;;;18.23;51.75
21109;BME280;10712;52.944;9.098;2023-03-22T05:24:09;100614.66;;;18.14;52.06
21109;BME280;10712;52.944;9.098;2023-03-22T05:26:36;100613.53;;;18.35;51.62
21109;BME280;10712;52.944;9.098;2023-03-22T05:29:08;100623.47;;;18.44;51.68
21109;BME280;10712;52.944;9.098;2023-03-22T05:32:13;100623.47;;;18.35;51.72
21109;BME280;10712;52.944;9.098;2023-03-22T05:34:44;100619.75;;;18.26;51.99
21109;BME280;10712;52.944;9.098;2023-03-22T05:37:20;100610.97;;;18.34;51.83
21109;BME280;10712;52.944;9.098;2023-03-22T05:39:50;100601.16;;;18.33;51.86
21109;BME280;10712;52.944;9.098;2023-03-22T05:42:17;100610.53;;;18.29;52.19
21109;BME280;10712;52.944;9.098;2023-03-22T05:44:43;100618.38;;;18.32;51.95
21109;BME280;10712;52.944;9.098;2023-03-22T05:47:11;100606.97;;;18.19;52.33
21109;BME280;10712;52.944;9.098;2023-03-22T05:49:51;100601.16;;;18.14;52.42
21109;BME280;10712;52.944;9.098;2023-03-22T05:52:20;100603.28;;;18.20;52.53
21109;BME280;10712;52.944;9.098;2023-03-22T05:55:00;100604.72;;;18.14;52.87
21109;BME280;10712;52.944;9.098;2023-03-22T05:57:26;100613.78;;;18.13;52.73
21109;BME280;10712;52.944;9.098;2023-03-22T05:59:56;100604.72;;;18.14;52.71
21109;BME280;10712;52.944;9.098;2023-03-22T06:02:27;100606.84;;;18.10;53.04
21109;BME280;10712;52.944;9.098;2023-03-22T06:04:53;100604.00;;;18.12;52.91
21109;BME280;10712;52.944;9.098;2023-03-22T06:07:20;100606.72;;;18.22;52.81
21109;BME280;10712;52.944;9.098;2023-03-22T06:09:50;100604.44;;;18.27;52.61
21109;BME280;10712;52.944;9.098;2023-03-22T06:12:25;100603.88;;;18.42;52.53
21109;BME280;10712;52.944;9.098;2023-03-22T06:14:59;100592.38;;;18.31;52.70
21109;BME280;10712;52.944;9.098;2023-03-22T06:17:35;100592.78;;;18.36;52.73
21109;BME280;10712;52.944;9.098;2023-03-22T06:20:04;100588.25;;;18.36;52.58
21109;BME280;10712;52.944;9.098;2023-03-22T06:22:37;100588.53;;;18.43;52.59
21109;BME280;10712;52.944;9.098;2023-03-22T06:25:05;100581.97;;;18.55;52.37
21109;BME280;10712;52.944;9.098;2023-03-22T06:27:37;100584.00;;;18.53;52.46
21109;BME280;10712;52.944;9.098;2023-03-22T06:30:04;100584.81;;;18.54;52.51
21109;BME280;10712;52.944;9.098;2023-03-22T06:32:37;100577.47;;;18.65;52.44
21109;BME280;10712;52.944;9.098;2023-03-22T06:35:06;100574.59;;;18.76;51.87
21109;BME280;10712;52.944;9.098;2023-03-22T06:37:32;100580.56;;;18.70;51.99
21109;BME280;10712;52.944;9.098;2023-03-22T06:39:58;100577.00;;;18.79;51.80
21109;BME280;10712;52.944;9.098;2023-03-22T06:42:25;100574.59;;;18.76;51.87
21109;BME280;10712;52.944;9.098;2023-03-22T06:45:01;100570.63;;;18.80;51.87
21109;BME280;10712;52.944;9.098;2023-03-22T06:47:31;100583.66;;;18.95;51.76
21109;BME280;10712;52.944;9.098;2023-03-22T06:50:00;100583.34;;;18.98;51.86
21109;BME280;10712;52.944;9.098;2023-03-22T06:52:46;100589.13;;;19.03;51.77
21109;BME280;10712;52.944;9.098;2023-03-22T06:55:12;100578.19;;;19.04;51.51
21109;BME280;10712;52.944;9.098;2023-03-22T06:57:38;100572.25;;;19.01;51.65
21109;BME280;10712;52.944;9.098;2023-03-22T07:00:04;100589.25;;;19.11;51.58
21109;BME280;10712;52.944;9.098;2023-03-22T07:02:30;100578.56;;;19.19;51.23
21109;BME280;10712;52.944;9.098;2023-03-22T07:05:12;100572.78;;;19.14;51.35
21109;BME280;10712;52.944;9.098;2023-03-22T07:07:38;100571.84;;;19.23;51.13
21109;BME280;10712;52.944;9.098;2023-03-22T07:10:04;100566.78;;;19.20;51.22
21109;BME280;10712;52.944;9.098;2023-03-22T07:12:32;100572.97;;;19.30;51.10
21109;BME280;10712;52.944;9.098;2023-03-22T07:15:03;100568.28;;;19.32;51.01
21109;BME280;10712;52.944;9.098;2023-03-22T07:17:44;100577.75;;;19.36;50.99
21109;BME280;10712;52.944;9.098;2023-03-22T07:20:10;100575.78;;;19.38;51.23
21109;BME280;10712;52.944;9.098;2023-03-22T07:22:36;100568.13;;;19.34;51.34
21109;BME280;10712;52.944;9.098;2023-03-22T07:25:03;100567.41;;;19.32;51.78
21109;BME280;10712;52.944;9.098;2023-03-22T07:27:31;100574.63;;;19.41;51.63
21109;BME280;10712;52.944;9.098;2023-03-22T07:29:57;100562.41;;;19.46;51.89
21109;BME280;10712;52.944;9.098;2023-03-22T07:32:23;100568.63;;;19.56;51.20
21109;BME280;10712;52.944;9.098;2023-03-22T07:34:58;100561.94;;;19.51;51.13
21109;BME280;10712;52.944;9.098;2023-03-22T07:37:24;100561.50;;;19.55;51.28
21109;BME280;10712;52.944;9.098;2023-03-22T07:39:50;100567.53;;;19.67;50.93
21109;BME280;10712;52.944;9.098;2023-03-22T07:42:16;100545.78;;;19.69;50.57
21109;BME280;10712;52.944;9.098;2023-03-22T07:45:15;100538.03;;;19.74;50.01
21109;BME280;10712;52.944;9.098;2023-03-22T07:47:42;100535.72;;;19.79;50.16
21109;BME280;10712;52.944;9.098;2023-03-22T07:50:17;100531.72;;;19.83;49.84
21109;BME280;10712;52.944;9.098;2023-03-22T07:52:47;100519.50;;;19.79;50.15
21109;BME280;10712;52.944;9.098;2023-03-22T07:55:13;100516.66;;;19.80;50.17
21109;BME280;10712;52.944;9.098;2023-03-22T07:57:40;100523.81;;;19.72;49.96
21109;BME280;10712;52.944;9.098;2023-03-22T08:00:08;100515.81;;;19.80;49.71
21109;BME280;10712;52.944;9.098;2023-03-22T08:02:49;100503.75;;;19.92;49.67
21109;BME280;10712;52.944;9.098;2023-03-22T08:05:32;100509.16;;;19.92;49.61
21109;BME280;10712;52.944;9.098;2023-03-22T08:08:00;100506.28;;;19.93;49.47
21109;BME280;10712;52.944;9.098;2023-03-22T08:10:26;100508.16;;;19.93;49.51
21109;BME280;10712;52.944;9.098;2023-03-22T08:12:53;100508.56;;;19.98;49.75
21109;BME280;10712;52.944;9.098;2023-03-22T08:15:23;100506.84;;;19.97;49.05
21109;BME280;10712;52.944;9.098;2023-03-22T08:17:49;100497.34;;;19.93;49.70
21109;BME280;10712;52.944;9.098;2023-03-22T08:20:24;100508.41;;;19.82;49.38
21109;BME280;10712;52.944;9.098;2023-03-22T08:22:57;100508.84;;;19.95;48.85
21109;BME280;10712;52.944;9.098;2023-03-22T08:25:26;100501.56;;;20.13;48.71
21109;BME280;10712;52.944;9.098;2023-03-22T08:27:56;100494.25;;;19.88;49.17
21109;BME280;10712;52.944;9.098;2023-03-22T08:30:25;100497.66;;;19.90;48.91
21109;BME280;10712;52.944;9.098;2023-03-22T08:32:52;100497.84;;;20.14;48.82
21109;BME280;10712;52.944;9.098;2023-03-22T08:35:18;100494.44;;;20.30;48.43
21109;BME280;10712;52.944;9.098;2023-03-22T08:37:44;100489.28;;;20.36;48.22
21109;BME280;10712;52.944;9.098;2023-03-22T08:40:11;100492.19;;;20.43;48.34
21109;BME280;10712;52.944;9.098;2023-03-22T08:42:42;100486.63;;;20.44;48.30
21109;BME280;10712;52.944;9.098;2023-03-22T08:45:09;100479.81;;;20.40;47.93
21109;BME280;10712;52.944;9.098;2023-03-22T08:47:42;100480.22;;;20.46;47.96
21109;BME280;10712;52.944;9.098;2023-03-22T08:50:10;100482.28;;;20.52;47.53
21109;BME280;10712;52.944;9.098;2023-03-22T08:52:44;100472.75;;;20.48;47.81
21109;BME280;10712;52.944;9.098;2023-03-22T08:55:24;100467.44;;;20.64;47.50
21109;BME280;10712;52.944;9.098;2023-03-22T08:58:16;100470.06;;;20.81;46.91
21109;BME280;10712;52.944;9.098;2023-03-22T09:01:02;100468.19;;;20.74;46.94
21109;BME280;10712;52.944;9.098;2023-03-22T09:03:50;100469.16;;;20.65;46.62
21109;BME280;10712;52.944;9.098;2023-03-22T09:06:16;100477.19;;;20.82;45.95
21109;BME280;10712;52.944;9.098;2023-03-22T09:08:42;100468.50;;;20.71;46.05
21109;BME280;10712;52.944;9.098;2023-03-22T09:11:12;100474.22;;;20.68;46.06
21109;BME280;10712;52.944;9.098;2023-03-22T09:13:38;100471.91;;;20.73;46.06
21109;BME280;10712;52.944;9.098;2023-03-22T09:16:05;100463.13;;;20.79;45.72
21109;BME280;10712;52.944;9.098;2023-03-22T09:18:34;100466.75;;;20.88;45.62
21109;BME280;10712;52.944;9.098;2023-03-22T09:21:07;100460.28;;;20.89;45.87
21109;BME280;10712;52.944;9.098;2023-03-22T09:23:41;100459.84;;;21.01;45.60
21109;BME280;10712;52.944;9.098;2023-03-22T09:26:09;100449.72;;;21.11;45.59
21109;BME280;10712;52.944;9.098;2023-03-22T09:28:36;100446.00;;;21.12;45.55
21109;BME280;10712;52.944;9.098;2023-03-22T09:31:08;100453.78;;;21.07;46.09
21109;BME280;10712;52.944;9.098;2023-03-22T09:33:36;100449.81;;;21.28;45.42
21109;BME280;10712;52.944;9.098;2023-03-22T09:36:04;100447.44;;;21.33;44.62
21109;BME280;10712;52.944;9.098;2023-03-22T09:38:31;100452.19;;;21.39;44.29
21109;BME280;10712;52.944;9.098;2023-03-22T09:41:04;100442.06;;;21.41;43.94
21109;BME280;10712;52.944;9.098;2023-03-22T09:43:47;100439.66;;;21.21;43.97
21109;BME280;10712;52.944;9.098;2023-03-22T09:46:24;100443.38;;;21.37;44.05
21109;BME280;10712;52.944;9.098;2023-03-22T09:48:52;100440.31;;;21.32;44.01
21109;BME280;10712;52.944;9.098;2023-03-22T09:51:41;100430.88;;;21.36;44.10
21109;BME280;10712;52.944;9.098;2023-03-22T09:54:18;100430.22;;;21.50;43.20
21109;BME280;10712;52.944;9.098;2023-03-22T09:59:56;100435.63;;;21.42;44.00
21109;BME280;10712;52.944;9.098;2023-03-22T10:05:46;100444.78;;;21.49;42.51
21109;BME280;10712;52.944;9.098;2023-03-22T10:14:30;100468.81;;;21.36;43.09
21109;BME280;10712;52.944;9.098;2023-03-22T10:17:03;100463.38;;;21.36;43.36
21109;BME280;10712;52.944;9.098;2023-03-22T10:22:36;100467.41;;;21.32;43.27
21109;BME280;10712;52.944;9.098;2023-03-22T10:25:05;100460.16;;;21.32;43.10
21109;BME280;10712;52.944;9.098;2023-03-22T10:27:34;100458.31;;;21.41;42.91
21109;BME280;10712;52.944;9.098;2023-03-22T10:30:22;100457.81;;;21.45;43.64
21109;BME280;10712;52.944;9.098;2023-03-22T10:33:02;100454.75;;;21.40;42.85
21109;BME280;10712;52.944;9.098;2023-03-22T10:35:30;100441.72;;;21.52;42.94
21109;BME280;10712;52.944;9.098;2023-03-22T10:38:01;100439.34;;;21.41;42.62
21109;BME280;10712;52.944;9.098;2023-03-22T10:40:34;100442.75;;;21.43;42.79
21109;BME280;10712;52.944;9.098;2023-03-22T10:43:11;100448.66;;;21.46;43.03
21109;BME280;10712;52.944;9.098;2023-03-22T10:45:42;100443.41;;;21.53;42.41
21109;BME280;10712;52.944;9.098;2023-03-22T10:50:46;100444.09;;;21.47;42.34
21109;BME280;10712;52.944;9.098;2023-03-22T10:55:46;100455.44;;;21.58;41.69
21109;BME280;10712;52.944;9.098;2023-03-22T10:58:20;100454.59;;;21.58;42.30
21109;BME280;10712;52.944;9.098;2023-03-22T11:00:57;100465.13;;;21.61;41.72
21109;BME280;10712;52.944;9.098;2023-03-22T11:03:40;100457.00;;;21.61;42.05
21109;BME280;10712;52.944;9.098;2023-03-22T11:08:53;100457.31;;;21.42;42.29
21109;BME280;10712;52.944;9.098;2023-03-22T11:11:35;100455.97;;;21.54;41.59
21109;BME280;10712;52.944;9.098;2023-03-22T11:14:15;100460.72;;;21.60;41.93
21109;BME280;10712;52.944;9.098;2023-03-22T11:19:34;100467.16;;;21.59;41.86
21109;BME280;10712;52.944;9.098;2023-03-22T11:22:03;100466.31;;;21.67;41.42
21109;BME280;10712;52.944;9.098;2023-03-22T11:24:33;100458.03;;;21.76;41.98
21109;BME280;10712;52.944;9.098;2023-03-22T11:27:20;100459.38;;;21.80;41.64
21109;BME280;10712;52.944;9.098;2023-03-22T11:29:56;100457.19;;;21.84;41.55
21109;BME280;10712;52.944;9.098;2023-03-22T11:35:01;100462.09;;;21.80;40.39
21109;BME280;10712;52.944;9.098;2023-03-22T11:37:29;100450.91;;;21.83;40.67
21109;BME280;10712;52.944;9.098;2023-03-22T11:40:00;100451.75;;;21.84;40.60
21109;BME280;10712;52.944;9.098;2023-03-22T11:42:27;100453.97;;;21.88;40.93
21109;BME280;10712;52.944;9.098;2023-03-22T11:44:54;100448.50;;;21.72;40.42
21109;BME280;10712;52.944;9.098;2023-03-22T11:47:25;100440.06;;;21.83;40.25
21109;BME280;10712;52.944;9.098;2023-03-22T11:49:52;100433.63;;;21.76;40.55
21109;BME280;10712;52.944;9.098;2023-03-22T11:52:25;100421.06;;;21.75;40.08
21109;BME280;10712;52.944;9.098;2023-03-22T11:54:53;100431.94;;;21.75;40.29
21109;BME280;10712;52.944;9.098;2023-03-22T11:57:27;100416.50;;;21.76;39.61
21109;BME280;10712;52.944;9.098;2023-03-22T12:00:02;100427.84;;;21.55;40.58
21109;BME280;10712;52.944;9.098;2023-03-22T12:02:37;100439.38;;;21.57;40.77
21109;BME280;10712;52.944;9.098;2023-03-22T12:05:29;100443.09;;;21.56;40.80
21109;BME280;10712;52.944;9.098;2023-03-22T12:08:12;100440.41;;;21.64;40.68
21109;BME280;10712;52.944;9.098;2023-03-22T12:10:48;100435.63;;;21.58;40.56
21109;BME280;10712;52.944;9.098;2023-03-22T12:13:48;100441.72;;;21.52;39.93
21109;BME280;10712;52.944;9.098;2023-03-22T12:16:23;100437.16;;;21.52;39.94
21109;BME280;10712;52.944;9.098;2023-03-22T12:19:16;100447.81;;;21.46;39.39
21109;BME280;10712;52.944;9.098;2023-03-22T12:21:48;100441.41;;;21.55;39.10
21109;BME280;10712;52.944;9.098;2023-03-22T12:24:28;100448.84;;;21.53;39.31
21109;BME280;10712;52.944;9.098;2023-03-22T12:27:01;100444.78;;;21.65;39.41
21109;BME280;10712;52.944;9.098;2023-03-22T12:29:30;100435.31;;;21.61;40.64
21109;BME280;10712;52.944;9.098;2023-03-22T12:32:20;100428.88;;;21.70;41.05
21109;BME280;10712;52.944;9.098;2023-03-22T12:34:50;100449.19;;;21.66;41.19
21109;BME280;10712;52.944;9.098;2023-03-22T12:37:24;100442.25;;;21.55;41.52
21109;BME280;10712;52.944;9.098;2023-03-22T12:43:12;100432.38;;;21.38;42.75
21109;BME280;10712;52.944;9.098;2023-03-22T12:45:44;100433.91;;;21.41;42.87
21109;BME280;10712;52.944;9.098;2023-03-22T12:48:34;100430.69;;;21.29;43.37
21109;BME280;10712;52.944;9.098;2023-03-22T12:51:09;100443.00;;;21.23;44.06
21109;BME280;10712;52.944;9.098;2023-03-22T12:53:41;100436.59;;;21.25;44.00
21109;BME280;10712;52.944;9.098;2023-03-22T12:56:45;100441.16;;;21.24;44.26
21109;BME280;10712;52.944;9.098;2023-03-22T12:59:23;100453.13;;;21.13;44.41
21109;BME280;10712;52.944;9.098;2023-03-22T13:02:19;100447.16;;;21.10;44.92
21109;BME280;10712;52.944;9.098;2023-03-22T13:04:58;100435.47;;;21.09;45.16
21109;BME280;10712;52.944;9.098;2023-03-22T13:10:00;100441.22;;;20.98;45.43
21109;BME280;10712;52.944;9.098;2023-03-22T13:12:32;100450.00;;;20.92;45.40
21109;BME280;10712;52.944;9.098;2023-03-22T13:17:42;100449.66;;;20.95;44.84
21109;BME280;10712;52.944;9.098;2023-03-22T13:30:29;100459.78;;;20.85;46.44
21109;BME280;10712;52.944;9.098;2023-03-22T13:38:39;100453.97;;;20.72;47.33
21109;BME280;10712;52.944;9.098;2023-03-22T13:43:50;100443.22;;;20.88;47.37
21109;BME280;10712;52.944;9.098;2023-03-22T14:02:16;100446.28;;;20.93;46.82
21109;BME280;10712;52.944;9.098;2023-03-22T14:05:00;100440.72;;;21.03;46.48
21109;BME280;10712;52.944;9.098;2023-03-22T14:07:51;100437.66;;;20.98;46.10
21109;BME280;10712;52.944;9.098;2023-03-22T14:10:21;100450.00;;;20.92;46.38
21109;BME280;10712;52.944;9.098;2023-03-22T14:13:03;100445.75;;;20.90;46.30
21109;BME280;10712;52.944;9.098;2023-03-22T14:15:37;100437.66;;;20.98;46.14
21109;BME280;10712;52.944;9.098;2023-03-22T14:18:19;100433.25;;;20.97;45.45
21109;BME280;10712;52.944;9.098;2023-03-22T14:20:53;100411.41;;;20.98;45.64
21109;BME280;10712;52.944;9.098;2023-03-22T14:23:25;100405.16;;;20.98;45.63
21109;BME280;10712;52.944;9.098;2023-03-22T14:26:01;100409.41;;;21.00;46.03
21109;BME280;10712;52.944;9.098;2023-03-22T14:28:38;100420.44;;;21.07;46.16
21109;BME280;10712;52.944;9.098;2023-03-22T14:31:20;100402.47;;;21.06;45.67
21109;BME280;10712;52.944;9.098;2023-03-22T14:33:47;100409.09;;;21.11;45.80
21109;BME280;10712;52.944;9.098;2023-03-22T14:36:14;100410.75;;;21.04;46.02
21109;BME280;10712;52.944;9.098;2023-03-22T14:38:44;100427.28;;;21.27;45.00
21109;BME280;10712;52.944;9.098;2023-03-22T14:41:18;100430.84;;;21.28;44.74
21109;BME280;10712;52.944;9.098;2023-03-22T14:43:47;100432.53;;;21.20;44.61
21109;BME280;10712;52.944;9.098;2023-03-22T14:46:22;100422.00;;;21.17;44.94
21109;BME280;10712;52.944;9.098;2023-03-22T14:48:52;100432.53;;;21.29;44.88
21109;BME280;10712;52.944;9.098;2023-03-22T14:51:40;100423.38;;;21.21;43.98
21109;BME280;10712;52.944;9.098;2023-03-22T14:54:14;100439.28;;;21.25;43.08
21109;BME280;10712;52.944;9.098;2023-03-22T14:56:43;100441.34;;;21.23;43.25